• Join FlightAware (Why Join?)
  • Login
  • US Flag 
01:16AM EDT


 

Airport Tracker/Info


-or-


 

Live Flight TrackerFlight Track Log ✈ CCA984 ✈ 05-May-2012 ✈ KLAX - ZBAA / PEK

Flight Track Log - Related Links

Times and Time Zones

All times are in EDT time to prevent confusion due to time zone crossing. See the CCA984 flight status page for this flight to view local times or setup timezone preferences in your user account.

Time Position Orientation Groundspeed Altitude Reporting Facility
EDT Latitude Longitude Course Direction KTS MPH feet Rate Location/Type
05:03AM 33.9331 -118.4478 262° West 202 232 1,800  Level Los Angeles Center
05:04AM 33.9242 -118.5200 264° West 210 242 3,700 1,740 Climbing Los Angeles Center
05:05AM 33.9164 -118.6033 263° West 255 293 5,400 1,980 Climbing Los Angeles Center
05:06AM 33.9081 -118.6911 263° West 263 303 7,700 2,160 Climbing Los Angeles Center
05:07AM 33.8992 -118.7817 263° West 269 310 9,800 2,100 Climbing Los Angeles Center
05:08AM 33.8897 -118.8764 289° West 280 322 12,000 1,680 Climbing Los Angeles Center
05:09AM 33.9106 -118.9494 311° West 296 341 13,300 1,020 Climbing Los Angeles Center
05:10AM 33.9994 -119.0711 311° West 350 403 14,600 1,380 Climbing Los Angeles Center
05:11AM 34.0692 -119.1672 311° West 370 426 16,700 1,920 Climbing Los Angeles Center
05:12AM 34.1411 -119.2656 311° West 382 440 18,500 1,620 Climbing Los Angeles Center
05:13AM 34.2161 -119.3694 312° West 401 461 20,000 1,500 Climbing Los Angeles Center
05:14AM 34.2933 -119.4742 311° West 409 471 21,500 1,500 Climbing Los Angeles Center
05:15AM 34.3725 -119.5850 311° West 425 489 23,000 1,380 Climbing Los Angeles Center
05:16AM 34.4539 -119.6969 316° Northwest 433 498 24,400 1,260 Climbing Los Angeles Center
05:17AM 34.5436 -119.8011 326° Northwest 443 510 25,600 1,140 Climbing Los Angeles Center
05:18AM 34.6414 -119.8808 326° Northwest 470 541 26,700 1,020 Climbing Los Angeles Center
05:19AM 34.7497 -119.9692 326° Northwest 471 542 27,700 600 Climbing Los Angeles Center
05:20AM 34.8586 -120.0603 326° Northwest 473 544 28,000 120 Climbing Los Angeles Center
05:21AM 34.9850 -120.1656 326° Northwest 481 554 28,000  Level Los Angeles Center
05:22AM 35.0939 -120.2561 326° Northwest 480 552 28,000  Level Los Angeles Center
05:23AM 35.2025 -120.3458 331° Northwest 477 549 28,000  Level Los Angeles Center
05:24AM 35.3175 -120.4242 329° Northwest 483 556 28,000  Level Los Angeles Center
05:25AM 35.4319 -120.5081 331° Northwest 483 556 28,000  Level Los Angeles Center
05:26AM 35.5492 -120.5881 331° Northwest 484 557 28,000  Level Los Angeles Center
05:27AM 35.6614 -120.6650 330° Northwest 477 549 28,000  Level Los Angeles Center
05:28AM 35.7775 -120.7461 331° Northwest 478 550 28,000  Level Los Angeles Center
05:29AM 35.8936 -120.8269 329° Northwest 478 550 28,000  Level Los Angeles Center
05:30AM 36.0128 -120.9144 331° Northwest 473 544 28,000  Level Oakland Center
05:31AM 36.1294 -120.9942 330° Northwest 473 544 28,000  Level Oakland Center
05:32AM 36.2442 -121.0764 330° Northwest 473 544 28,000  Level Oakland Center
05:33AM 36.3608 -121.1592 331° Northwest 473 544 28,000  Level Oakland Center
05:34AM 36.4756 -121.2394 331° Northwest 473 544 28,000  Level Oakland Center
05:35AM 36.5922 -121.3200 329° Northwest 473 544 28,000  Level Oakland Center
05:36AM 36.7044 -121.4036 330° Northwest 473 544 28,000  Level Oakland Center
05:37AM 36.8292 -121.4950 330° Northwest 468 539 28,000  Level Oakland Center
05:38AM 36.9417 -121.5764 330° Northwest 468 539 28,000  Level Oakland Center
05:39AM 37.0558 -121.6581 330° Northwest 468 539 28,000  Level Oakland Center
05:40AM 37.1533 -121.7292 330° Northwest 459 528 28,000  Level Oakland Center
05:41AM 37.2822 -121.8244 330° Northwest 466 536 28,000  Level Oakland Center
05:42AM 37.3942 -121.9067 330° Northwest 475 547 28,000  Level Oakland Center
05:43AM 37.5061 -121.9867 330° Northwest 470 541 28,000  Level Oakland Center
05:44AM 37.6181 -122.0694 330° Northwest 465 535 28,000  Level Oakland Center
05:45AM 37.7300 -122.1500 329° Northwest 465 535 28,000  Level Oakland Center
05:46AM 37.8436 -122.2358 330° Northwest 465 535 28,000  Level Oakland Center
05:47AM 37.9533 -122.3167 330° Northwest 465 535 28,000  Level Oakland Center
05:48AM 38.0692 -122.4006 329° Northwest 465 535 28,000  Level Oakland Center
05:49AM 38.1683 -122.4767 329° Northwest 465 535 28,000  Level Oakland Center
05:50AM 38.2800 -122.5608 329° Northwest 465 535 28,000  Level Oakland Center
05:51AM 38.3872 -122.6428 330° Northwest 465 535 28,000  Level Oakland Center
05:52AM 38.4986 -122.7247 328° Northwest 465 535 28,000  Level Oakland Center
05:53AM 38.6058 -122.8097 330° Northwest 465 535 28,000  Level Oakland Center
05:54AM 38.7150 -122.8897 328° Northwest 460 529 28,000  Level Oakland Center
05:55AM 38.8200 -122.9725 330° Northwest 455 524 28,000  Level Oakland Center
05:56AM 38.9272 -123.0528 329° Northwest 450 518 28,000  Level Oakland Center
05:57AM 39.0361 -123.1361 329° Northwest 450 518 28,000  Level Oakland Center
05:58AM 39.1411 -123.2169 329° Northwest 450 518 28,000  Level Oakland Center
05:59AM 39.2478 -123.3008 330° Northwest 450 518 28,000  Level Oakland Center
06:00AM 39.3567 -123.3822 328° Northwest 450 518 28,000  Level Oakland Center
06:01AM 39.4614 -123.4667 326° Northwest 450 518 28,000  Level Oakland Center
06:02AM 39.5658 -123.5564 329° Northwest 450 518 28,000  Level Oakland Center
06:03AM 39.6722 -123.6386 329° Northwest 450 518 28,000  Level Oakland Center
06:05AM 39.8183 -123.7514 328° Northwest 454 522 28,000  Level Seattle Center
06:06AM 39.9253 -123.8372 328° Northwest 453 521 28,000  Level Seattle Center
06:07AM 40.0325 -123.9236 329° Northwest 453 521 28,000  Level Seattle Center
06:08AM 40.1397 -124.0094 329° Northwest 452 520 28,000  Level Seattle Center
06:09AM 40.2464 -124.0950 329° Northwest 452 520 28,000  Level Seattle Center
06:10AM 40.3586 -124.1844 328° Northwest 449 517 28,000  Level Seattle Center
06:11AM 40.4642 -124.2714 328° Northwest 450 518 28,000  Level Seattle Center
06:12AM 40.5739 -124.3606 328° Northwest 454 522 28,000  Level Seattle Center
06:13AM 40.6800 -124.4481 328° Northwest 452 520 28,000  Level Seattle Center
06:14AM 40.7872 -124.5356 328° Northwest 453 521 28,000  Level Seattle Center
06:15AM 40.8928 -124.6231 328° Northwest 451 519 28,000  Level Seattle Center
06:16AM 40.9994 -124.7106 328° Northwest 451 519 28,000  Level Seattle Center
06:17AM 41.1064 -124.7997 328° Northwest 453 521 28,000  Level Seattle Center
06:18AM 41.2142 -124.8894 328° Northwest 456 525 28,000  Level Seattle Center
06:19AM 41.3211 -124.9778 328° Northwest 455 524 28,000  Level Seattle Center
06:20AM 41.4300 -125.0686 328° Northwest 459 528 28,000  Level Seattle Center
06:21AM 41.5375 -125.1589 327° Northwest 459 528 28,000  Level Seattle Center
06:22AM 41.6444 -125.2506 328° Northwest 458 527 28,000  Level Seattle Center
06:23AM 41.7519 -125.3417 327° Northwest 458 527 28,000  Level Seattle Center
06:24AM 41.8581 -125.4331 328° Northwest 456 525 28,000  Level Seattle Center
06:25AM 41.9647 -125.5233 327° Northwest 456 525 28,000  Level Seattle Center
06:26AM 42.0697 -125.6142 327° Northwest 452 520 28,000  Level Seattle Center
06:27AM 42.1761 -125.7064 327° Northwest 454 522 28,000 480 Level Seattle Center
06:28AM 42.2814 -125.7981 327° Northwest 452 520 29,000 960 Climbing Seattle Center
06:29AM 42.3864 -125.8889 327° Northwest 451 519 30,000 480 Climbing Seattle Center
06:30AM 42.4914 -125.9811 327° Northwest 450 518 30,000  Level Seattle Center
06:31AM 42.5964 -126.0739 327° Northwest 451 519 30,000  Level Seattle Center
06:32AM 42.7019 -126.1661 333° Northwest 452 520 30,000  Level Seattle Center
06:33AM 42.8144 -126.2436 335° Northwest 455 524 30,000  Level Seattle Center
06:38AM 43.4333 -126.6500 360° North 453 521 30,000  Level Oakland Oceanic (ODAPS)
06:40AM 43.4333 -126.6500 360° North 450 518 30,000  Level Oakland Oceanic (ODAPS)
06:40AM 43.4333 -126.6500 334° Northwest 450 518 30,000  Level Oakland Oceanic (ODAPS)
06:40AM 43.6333 -126.7833 334° Northwest 450 518 30,000  Level Oakland Oceanic (ODAPS)
06:56AM 45.3667 -128.0000 332° Northwest 445 512 30,000  Level Oakland Oceanic (ODAPS)
07:14AM 47.3167 -129.5167 332° Northwest 450 518 30,000  Level Vancouver Center
07:18AM 47.7500 -129.8667 334° Northwest 450 518 30,000  Level Vancouver Center
07:19AM 47.8667 -129.9500 331° Northwest 440 506 30,000  Level Vancouver Center
07:20AM 47.9667 -130.0333 337° Northwest 440 506 30,000  Level Vancouver Center
07:21AM 48.1000 -130.1167 321° Northwest 440 506 30,000  Level Vancouver Center
07:22AM 48.1833 -130.2167 335° Northwest 440 506 30,000  Level Vancouver Center
07:23AM 48.3000 -130.3000 330° Northwest 440 506 30,000  Level Vancouver Center
07:24AM 48.4167 -130.4000 331° Northwest 440 506 30,000  Level Vancouver Center
07:25AM 48.5167 -130.4833 331° Northwest 440 506 30,000  Level Vancouver Center
07:26AM 48.6167 -130.5667 336° Northwest 440 506 30,000  Level Vancouver Center
07:27AM 48.7167 -130.6333 327° Northwest 440 506 30,000  Level Vancouver Center
07:28AM 48.8333 -130.7500 336° Northwest 440 506 30,000  Level Vancouver Center
07:29AM 48.9333 -130.8167 331° Northwest 440 506 30,000  Level Vancouver Center
07:30AM 49.0500 -130.9167 331° Northwest 440 506 30,000  Level Vancouver Center
07:31AM 49.1500 -131.0000 331° Northwest 440 506 30,000  Level Vancouver Center
07:33AM 49.3667 -131.1833 327° Northwest 440 506 30,000  Level Vancouver Center
07:34AM 49.4667 -131.2833 327° Northwest 430 495 30,000  Level Vancouver Center
07:35AM 49.5667 -131.3833 335° Northwest 440 506 30,000  Level Vancouver Center
07:36AM 49.6833 -131.4667 331° Northwest 440 506 30,000  Level Vancouver Center
07:37AM 49.8000 -131.5667 322° Northwest 440 506 30,000  Level Vancouver Center
07:38AM 49.8833 -131.6667 335° Northwest 440 506 30,000  Level Vancouver Center
07:39AM 50.0000 -131.7500 327° Northwest 440 506 30,000  Level Vancouver Center
07:40AM 50.1000 -131.8500 337° Northwest 440 506 30,000  Level Vancouver Center
07:41AM 50.2000 -131.9167 324° Northwest 430 495 30,000  Level Vancouver Center
07:42AM 50.3167 -132.0500 332° Northwest 430 495 30,000  Level Vancouver Center
07:43AM 50.4167 -132.1333 328° Northwest 430 495 30,000  Level Vancouver Center
07:44AM 50.5167 -132.2333 328° Northwest 440 506 30,000  Level Vancouver Center
07:45AM 50.6167 -132.3333 323° Northwest 430 495 30,000  Level Vancouver Center
07:46AM 50.7000 -132.4333 332° Northwest 440 506 30,000  Level Vancouver Center
07:47AM 50.8167 -132.5333 319° Northwest 430 495 30,000  Level Vancouver Center
07:48AM 50.9000 -132.6500 332° Northwest 440 506 30,000  Level Vancouver Center
07:49AM 51.0167 -132.7500 328° Northwest 420 483 30,000  Level Vancouver Center
07:50AM 51.1167 -132.8500 328° Northwest 430 495 30,000  Level Vancouver Center
07:51AM 51.2167 -132.9500 328° Northwest 440 506 30,000  Level Vancouver Center
07:52AM 51.3333 -133.0667 323° Northwest 430 495 30,000  Level Vancouver Center
07:53AM 51.4167 -133.1667 328° Northwest 430 495 30,000  Level Vancouver Center
07:54AM 51.5333 -133.2833 323° Northwest 440 506 30,000  Level Vancouver Center
07:55AM 51.6167 -133.3833 328° Northwest 430 495 30,000  Level Vancouver Center
07:56AM 51.7333 -133.5000 323° Northwest 430 495 30,000  Level Vancouver Center
07:57AM 51.8167 -133.6000 360° North 430 495 30,000  Level Vancouver Center
07:57AM 51.8833 -133.6000 309° West 430 495 30,000  Level Anchorage Center
07:58AM 51.9333 -133.7000 324° Northwest 430 495 30,000  Level Vancouver Center
07:59AM 52.0167 -133.8000 328° Northwest 430 495 30,000  Level Vancouver Center
08:00AM 52.1167 -133.9000 321° Northwest 440 506 30,000  Level Vancouver Center
08:01AM 52.2167 -134.0333 329° Northwest 440 506 30,000  Level Vancouver Center
08:02AM 52.3333 -134.1500 324° Northwest 430 495 30,000  Level Vancouver Center
08:03AM 52.4167 -134.2500 329° Northwest 440 506 30,000  Level Vancouver Center
08:04AM 52.5333 -134.3667 329° Northwest 440 506 30,000  Level Vancouver Center
08:05AM 52.6333 -134.4667 349° North 430 495 30,000  Level Vancouver Center
08:05AM 52.6833 -134.4833 325° Northwest 430 495 30,000  Level Anchorage Center
08:06AM 52.7833 -134.6000 329° Northwest 430 495 30,000  Level Anchorage Center
08:07AM 52.8833 -134.7000 325° Northwest 430 495 30,000  Level Anchorage Center
08:08AM 52.9833 -134.8167 325° Northwest 430 495 30,000  Level Anchorage Center
08:09AM 53.0833 -134.9333 325° Northwest 430 495 30,000  Level Anchorage Center
08:10AM 53.1833 -135.0500 329° Northwest 420 483 30,000  Level Anchorage Center
08:11AM 53.2833 -135.1500 325° Northwest 420 483 30,000  Level Anchorage Center
08:12AM 53.3833 -135.2667 320° Northwest 430 495 30,000  Level Anchorage Center
08:13AM 53.4667 -135.3833 325° Northwest 420 483 30,000  Level Anchorage Center
08:14AM 53.5667 -135.5000 329° Northwest 420 483 30,000  Level Anchorage Center
08:15AM 53.6667 -135.6000 322° Northwest 420 483 30,000  Level Anchorage Center
08:16AM 53.7667 -135.7333 325° Northwest 430 495 30,000  Level Anchorage Center
08:17AM 53.8667 -135.8500 326° Northwest 430 495 30,000  Level Anchorage Center
08:18AM 53.9667 -135.9667 317° Northwest 430 495 30,000  Level Anchorage Center
08:19AM 54.0500 -136.1000 325° Northwest 430 495 30,000  Level Anchorage Center
08:20AM 54.1333 -136.2000 314° West 430 495 30,000  Level Anchorage Center
08:21AM 54.2167 -136.3500 317° Northwest 430 495 30,000  Level Anchorage Center
08:22AM 54.3000 -136.4833 322° Northwest 430 495 30,000  Level Anchorage Center
08:23AM 54.4000 -136.6167 317° Northwest 420 483 30,000  Level Anchorage Center
08:24AM 54.4833 -136.7500 314° West 420 483 30,000  Level Anchorage Center
08:25AM 54.5667 -136.9000 317° Northwest 430 495 30,000  Level Anchorage Center
08:26AM 54.6500 -137.0333 317° Northwest 430 495 30,000  Level Anchorage Center
08:27AM 54.7333 -137.1667 318° Northwest 430 495 30,000  Level Anchorage Center
08:28AM 54.8500 -137.3500 314° West 430 495 30,000  Level Anchorage Center
08:29AM 54.9333 -137.5000 317° Northwest 450 518 30,000  Level Anchorage Center
08:30AM 55.0167 -137.6333 314° West 430 495 30,000  Level Anchorage Center
08:31AM 55.1000 -137.7833 323° Northwest 420 483 30,000  Level Anchorage Center
08:32AM 55.2000 -137.9167 314° West 440 506 30,000  Level Anchorage Center
08:33AM 55.2833 -138.0667 314° West 440 506 30,000  Level Anchorage Center
08:34AM 55.3667 -138.2167 320° Northwest 430 495 30,000  Level Anchorage Center
08:35AM 55.4667 -138.3667 315° West 430 495 30,000  Level Anchorage Center
08:36AM 55.5500 -138.5167 315° West 440 506 30,000  Level Anchorage Center
08:37AM 55.6333 -138.6667 315° West 440 506 30,000  Level Anchorage Center
08:38AM 55.7167 -138.8167 317° Northwest 430 495 30,000  Level Anchorage Center
08:39AM 55.8167 -138.9833 315° West 440 506 30,000  Level Anchorage Center
08:40AM 55.9000 -139.1333 315° West 450 518 30,000  Level Anchorage Center
08:41AM 55.9833 -139.2833 317° Northwest 440 506 30,000  Level Anchorage Center
08:43AM 56.0833 -139.4500 315° West 450 518 30,000  Level Anchorage Center
08:44AM 56.1667 -139.6000 312° West 440 506 30,000  Level Anchorage Center
08:45AM 56.2500 -139.7667 317° Northwest 440 506 30,000  Level Anchorage Center
08:46AM 56.3500 -139.9333 315° West 450 518 30,000  Level Anchorage Center
08:47AM 56.4333 -140.0833 312° West 450 518 30,000  Level Anchorage Center
08:48AM 56.5167 -140.2500 318° Northwest 450 518 30,000  Level Anchorage Center
08:49AM 56.6167 -140.4167 315° West 440 506 30,000  Level Anchorage Center
08:50AM 56.7000 -140.5667 312° West 440 506 30,000  Level Anchorage Center
08:51AM 56.7833 -140.7333 312° West 440 506 30,000  Level Anchorage Center
08:52AM 56.8667 -140.9000 316° Northwest 450 518 30,000  Level Anchorage Center
08:53AM 56.9500 -141.0500 313° West 440 506 30,000  Level Anchorage Center
08:54AM 57.0333 -141.2167 313° West 440 506 30,000  Level Anchorage Center
08:55AM 57.1167 -141.3833 313° West 440 506 30,000  Level Anchorage Center
08:56AM 57.2000 -141.5500 313° West 440 506 30,000  Level Anchorage Center
08:57AM 57.2833 -141.7167 313° West 440 506 30,000  Level Anchorage Center
08:58AM 57.3667 -141.8833 313° West 440 506 30,000  Level Anchorage Center
08:59AM 57.4500 -142.0500 313° West 440 506 30,000  Level Anchorage Center
09:00AM 57.5333 -142.2167 313° West 440 506 30,000  Level Anchorage Center
09:01AM 57.6167 -142.3833 310° West 440 506 30,000  Level Anchorage Center
09:02AM 57.7000 -142.5667 313° West 440 506 30,000  Level Anchorage Center
09:03AM 57.7833 -142.7333 313° West 440 506 30,000  Level Anchorage Center
09:04AM 57.8667 -142.9000 311° West 440 506 30,000  Level Anchorage Center
09:05AM 57.9500 -143.0833 316° Northwest 440 506 30,000  Level Anchorage Center
09:06AM 58.0333 -143.2333 311° West 440 506 30,000  Level Anchorage Center
09:07AM 58.1167 -143.4167 311° West 450 518 30,000  Level Anchorage Center
09:08AM 58.2000 -143.6000 314° West 460 529 30,000  Level Anchorage Center
09:09AM 58.2833 -143.7667 311° West 460 529 30,000  Level Anchorage Center
09:10AM 58.3667 -143.9500 311° West 450 518 30,000  Level Anchorage Center
09:11AM 58.4500 -144.1333 309° West 460 529 30,000  Level Anchorage Center
09:12AM 58.5333 -144.3333 311° West 460 529 30,000  Level Anchorage Center
09:13AM 58.6167 -144.5167 316° Northwest 460 529 30,000  Level Anchorage Center
09:14AM 58.7167 -144.7000 309° West 460 529 30,000  Level Anchorage Center
09:15AM 58.8000 -144.9000 311° West 460 529 30,000  Level Anchorage Center
09:16AM 58.8833 -145.0833 309° West 470 541 30,000  Level Anchorage Center
09:17AM 58.9667 -145.2833 309° West 470 541 30,000  Level Anchorage Center
09:18AM 59.0500 -145.4833 312° West 470 541 30,000  Level Anchorage Center
09:19AM 59.1333 -145.6667 309° West 480 552 30,000  Level Anchorage Center
09:20AM 59.2167 -145.8667 309° West 470 541 30,000  Level Anchorage Center
09:21AM 59.3000 -146.0667 312° West 480 552 30,000  Level Anchorage Center
09:22AM 59.4000 -146.2833 309° West 470 541 30,000 300 Level Anchorage Center
09:23AM 59.4833 -146.4833 317° Northwest 470 541 30,700 780 Climbing Anchorage Center
09:24AM 59.5833 -146.6667 315° West 490 564 31,600 600 Climbing Anchorage Center
09:25AM 59.6833 -146.8667 317° Northwest 480 552 32,000 180 Climbing Anchorage Center
09:26AM 59.7833 -147.0500 312° West 480 552 32,000  Level Anchorage Center
09:27AM 59.8667 -147.2333 315° West 490 564 32,000  Level Anchorage Center
09:28AM 59.9667 -147.4333 318° Northwest 480 552 32,000  Level Anchorage Center
09:29AM 60.0667 -147.6167 315° West 480 552 32,000  Level Anchorage Center
09:30AM 60.1667 -147.8167 310° West 490 564 32,000  Level Anchorage Center
09:31AM 60.2500 -148.0167 317° Northwest 480 552 32,000  Level Anchorage Center
09:32AM 60.3667 -148.2333 310° West 490 564 32,000  Level Anchorage Center
09:33AM 60.4500 -148.4333 316° Northwest 490 564 32,000  Level Anchorage Center
09:34AM 60.5333 -148.6000 316° Northwest 480 552 32,000  Level Anchorage Center
09:35AM 60.6333 -148.8000 316° Northwest 490 564 32,000  Level Anchorage Center
09:36AM 60.7333 -149.0000 311° West 490 564 32,000  Level Anchorage Center
09:37AM 60.8167 -149.2000 316° Northwest 490 564 32,000  Level Anchorage Center
09:38AM 60.9167 -149.4000 310° West 490 564 32,000  Level Anchorage Center
09:39AM 61.0167 -149.6500 316° Northwest 490 564 32,000  Level Anchorage Center
09:40AM 61.1167 -149.8500 309° West 480 552 32,000  Level Anchorage Center
09:41AM 61.2000 -150.0667 305° West 480 552 32,000  Level Anchorage Center
09:42AM 61.2833 -150.3167 309° West 490 564 32,000  Level Anchorage Center
09:43AM 61.3667 -150.5333 303° West 490 564 32,000  Level Anchorage Center
09:44AM 61.4333 -150.7500 307° West 480 552 32,000  Level Anchorage Center
09:45AM 61.5167 -150.9833 307° West 490 564 32,000  Level Anchorage Center
09:46AM 61.6000 -151.2167 307° West 490 564 32,000  Level Anchorage Center
09:47AM 61.6833 -151.4500 301° West 490 564 32,000  Level Anchorage Center
09:48AM 61.7500 -151.6833 304° West 480 552 32,000  Level Anchorage Center
09:49AM 61.8333 -151.9500 305° West 490 564 32,000  Level Anchorage Center
09:50AM 61.9167 -152.2000 307° West 490 564 32,000  Level Anchorage Center
09:51AM 62.0000 -152.4333 305° West 490 564 32,000  Level Anchorage Center
09:52AM 62.0667 -152.6333 302° West 480 552 32,000  Level Anchorage Center
09:53AM 62.1500 -152.9167 302° West 490 564 32,000  Level Anchorage Center
09:54AM 62.2167 -153.1500 306° West 480 552 32,000  Level Anchorage Center
09:55AM 62.3000 -153.4000 300° West 490 564 32,000  Level Anchorage Center
09:56AM 62.3667 -153.6500 308° West 480 552 32,000  Level Anchorage Center
09:57AM 62.4500 -153.8833 300° West 480 552 32,000  Level Anchorage Center
09:58AM 62.5167 -154.1333 306° West 490 564 32,000  Level Anchorage Center
09:59AM 62.6000 -154.3833 300° West 490 564 32,000  Level Anchorage Center
10:00AM 62.6667 -154.6333 300° West 480 552 32,000  Level Anchorage Center
10:01AM 62.7333 -154.8833 306° West 470 541 32,000  Level Anchorage Center
10:02AM 62.8167 -155.1333 300° West 490 564 32,000  Level Anchorage Center
10:03AM 62.8833 -155.3833 297° West 480 552 32,000  Level Anchorage Center
10:05AM 63.0000 -155.9000 299° West 490 564 32,000  Level Anchorage Center
10:06AM 63.0667 -156.1667 291° West 490 564 32,000  Level Anchorage Center
10:07AM 63.1167 -156.4500 293° West 480 552 32,000  Level Anchorage Center
10:08AM 63.1667 -156.7167 298° West 480 552 32,000  Level Anchorage Center
10:09AM 63.2333 -157.0000 289° West 480 552 32,000  Level Anchorage Center
10:10AM 63.2833 -157.3333 299° West 490 564 32,000  Level Anchorage Center
10:11AM 63.3500 -157.6000 292° West 480 552 32,000  Level Anchorage Center
10:12AM 63.4000 -157.8833 292° West 480 552 32,000  Level Anchorage Center
10:13AM 63.4500 -158.1667 293° West 490 564 32,000  Level Anchorage Center
10:14AM 63.5000 -158.4333 291° West 480 552 32,000  Level Anchorage Center
10:15AM 63.5500 -158.7333 292° West 490 564 32,000  Level Anchorage Center
10:16AM 63.6000 -159.0167 292° West 490 564 32,000  Level Anchorage Center
10:17AM 63.6500 -159.3000 292° West 490 564 32,000  Level Anchorage Center
10:18AM 63.7000 -159.5833 292° West 490 564 32,000  Level Anchorage Center
10:19AM 63.7500 -159.8667 291° West 490 564 32,000  Level Anchorage Center
10:20AM 63.8000 -160.1667 291° West 490 564 32,000  Level Anchorage Center
10:21AM 63.8500 -160.4667 292° West 490 564 32,000  Level Anchorage Center
10:22AM 63.9000 -160.7500 284° West 490 564 32,000  Level Anchorage Center
10:23AM 63.9333 -161.0500 291° West 490 564 32,000  Level Anchorage Center
10:24AM 63.9833 -161.3500 292° West 490 564 32,000  Level Anchorage Center
10:25AM 64.0333 -161.6333 284° West 490 564 32,000  Level Anchorage Center
10:26AM 64.0667 -161.9333 289° West 490 564 32,000  Level Anchorage Center
10:27AM 64.1167 -162.2667 284° West 500 575 32,000  Level Anchorage Center
10:28AM 64.1500 -162.5667 285° West 490 564 32,000  Level Anchorage Center
10:29AM 64.1833 -162.8500 291° West 490 564 32,000  Level Anchorage Center
10:30AM 64.2333 -163.1500 284° West 490 564 32,000  Level Anchorage Center
10:31AM 64.2667 -163.4500 284° West 490 564 32,000  Level Anchorage Center
10:32AM 64.3000 -163.7667 291° West 490 564 32,000  Level Anchorage Center
10:33AM 64.3500 -164.0667 285° West 490 564 32,000  Level Anchorage Center
10:34AM 64.3833 -164.3667 285° West 490 564 32,000  Level Anchorage Center
10:35AM 64.4167 -164.6667 284° West 490 564 32,000  Level Anchorage Center
10:36AM 64.4500 -164.9833 285° West 490 564 32,000  Level Anchorage Center
10:37AM 64.4833 -165.2833 270° West 470 541 32,000  Level Anchorage Center
10:38AM 64.4833 -165.6000 270° West 480 552 32,000  Level Anchorage Center
10:39AM 64.4833 -165.9167 270° West 500 575 32,000  Level Anchorage Center
10:40AM 64.4833 -166.2500 270° West 490 564 32,000  Level Anchorage Center
10:41AM 64.4833 -166.5667 270° West 490 564 32,000  Level Anchorage Center
10:42AM 64.4833 -166.8833 263° West 490 564 32,000  Level Anchorage Center
10:43AM 64.4667 -167.2000 270° West 500 575 32,000  Level Anchorage Center
10:44AM 64.4667 -167.5167 270° West 490 564 32,000  Level Anchorage Center
10:45AM 64.4667 -167.8500 270° West 490 564 32,000  Level Anchorage Center
10:46AM 64.4667 -168.1667 263° West 490 564 32,000  Level Anchorage Center
10:47AM 64.4500 -168.4833 270° West 500 575 32,000  Level Anchorage Center
10:48AM 64.4500 -168.8000 264° West 490 564 32,000  Level Anchorage Center
10:49AM 64.4333 -169.1333 270° West 490 564 32,000  Level Anchorage Center
10:50AM 64.4333 -169.4500 270° West 490 564 32,000  Level Anchorage Center
10:51AM 64.4333 -169.7833 263° West 500 575 32,000  Level Anchorage Center
10:52AM 64.4167 -170.1000 270° West 500 575 32,000  Level Anchorage Center
10:53AM 64.4167 -170.4167 263° West 500 575 32,000  Level Anchorage Center
10:54AM 64.4000 -170.7333 264° West 490 564 32,000  Level Anchorage Center
10:55AM 64.3833 -171.0667 270° West 510 587 32,000  Level Anchorage Center
10:56AM 64.3833 -171.3833 276° West 500 575 32,000  Level Anchorage Center
11:04AM 64.4768 -173.7264 273° West  Level FlightAware Approximate
11:05AM 64.4834 -174.0315 273° West  Level FlightAware Approximate
11:06AM 64.4893 -174.3367 272° West  Level FlightAware Approximate
11:07AM 64.4945 -174.6421 272° West  Level FlightAware Approximate
11:08AM 64.4991 -174.9476 272° West  Level FlightAware Approximate
11:09AM 64.5031 -175.2531 272° West  Level FlightAware Approximate
11:10AM 64.5065 -175.5588 271° West  Level FlightAware Approximate
11:11AM 64.5092 -175.8645 271° West  Level FlightAware Approximate
11:12AM 64.5113 -176.1703 271° West  Level FlightAware Approximate
11:13AM 64.5128 -176.4761 271° West  Level FlightAware Approximate
11:14AM 64.5136 -176.7820 270° West  Level FlightAware Approximate
11:15AM 64.5138 -177.0878 270° West  Level FlightAware Approximate
11:16AM 64.5134 -177.3937 270° West  Level FlightAware Approximate
11:17AM 64.5123 -177.6996 269° West  Level FlightAware Approximate
11:18AM 64.5106 -178.0054 269° West  Level FlightAware Approximate
11:19AM 64.5082 -178.3111 269° West  Level FlightAware Approximate
11:20AM 64.5052 -178.6168 269° West  Level FlightAware Approximate
11:21AM 64.5016 -178.9225 268° West  Level FlightAware Approximate
11:22AM 64.4974 -179.2280 268° West  Level FlightAware Approximate
11:23AM 64.4925 -179.5334 268° West  Level FlightAware Approximate
11:24AM 64.4870 -179.8388 267° West  Level FlightAware Approximate
11:25AM 64.4804 179.8561 267° West  Level FlightAware Approximate
11:26AM 64.4737 179.5510 267° West  Level FlightAware Approximate
11:27AM 64.4663 179.2461 267° West  Level FlightAware Approximate
11:28AM 64.4584 178.9414 266° West  Level FlightAware Approximate
11:29AM 64.4498 178.6369 266° West  Level FlightAware Approximate
11:30AM 64.4406 178.3325 266° West  Level FlightAware Approximate
11:31AM 64.4307 178.0284 266° West  Level FlightAware Approximate
11:32AM 64.4202 177.7245 265° West  Level FlightAware Approximate
11:33AM 64.4091 177.4208 265° West  Level FlightAware Approximate
11:34AM 64.3974 177.1174 265° West  Level FlightAware Approximate
11:35AM 64.3850 176.8142 264° West  Level FlightAware Approximate
11:36AM 64.3721 176.5114 264° West  Level FlightAware Approximate
11:37AM 64.3585 176.2088 264° West  Level FlightAware Approximate
11:38AM 64.3442 175.9065 264° West  Level FlightAware Approximate
11:39AM 64.3294 175.6045 263° West  Level FlightAware Approximate
11:40AM 64.3139 175.3029 263° West  Level FlightAware Approximate
11:41AM 64.2978 175.0016 263° West  Level FlightAware Approximate
11:42AM 64.2811 174.7007 263° West  Level FlightAware Approximate
11:43AM 64.2638 174.4002 262° West  Level FlightAware Approximate
11:44AM 64.2459 174.1000 262° West  Level FlightAware Approximate
11:45AM 64.2273 173.8002 262° West  Level FlightAware Approximate
11:46AM 64.2082 173.5009 261° West  Level FlightAware Approximate
11:47AM 64.1884 173.2020 261° West  Level FlightAware Approximate
11:48AM 64.1680 172.9034 261° West  Level FlightAware Approximate
11:49AM 64.1470 172.6054 261° West  Level FlightAware Approximate
11:50AM 64.1254 172.3078 260° West  Level FlightAware Approximate
11:51AM 64.1032 172.0106 260° West  Level FlightAware Approximate
11:52AM 64.0804 171.7140 260° West  Level FlightAware Approximate
11:53AM 64.0570 171.4178 260° West  Level FlightAware Approximate
11:54AM 64.0329 171.1222 259° West  Level FlightAware Approximate
11:55AM 64.0083 170.8270 259° West  Level FlightAware Approximate
11:56AM 63.9831 170.5324 259° West  Level FlightAware Approximate
11:57AM 63.9573 170.2383 259° West  Level FlightAware Approximate
11:58AM 63.9309 169.9448 258° West  Level FlightAware Approximate
11:59AM 63.9039 169.6518 258° West  Level FlightAware Approximate
12:00PM 63.8763 169.3594 258° West  Level FlightAware Approximate
12:01PM 63.8481 169.0676 258° West  Level FlightAware Approximate
12:02PM 63.8193 168.7764 257° West  Level FlightAware Approximate
12:03PM 63.7900 168.4857 257° West  Level FlightAware Approximate
12:04PM 63.7601 168.1957 257° West  Level FlightAware Approximate
12:05PM 63.7295 167.9063 256° West  Level FlightAware Approximate
12:06PM 63.6984 167.6175 256° West  Level FlightAware Approximate
12:07PM 63.6668 167.3294 256° West  Level FlightAware Approximate
12:08PM 63.6345 167.0419 256° West  Level FlightAware Approximate
12:09PM 63.6017 166.7551 255° West  Level FlightAware Approximate
12:10PM 63.5683 166.4689 255° West  Level FlightAware Approximate
12:11PM 63.5344 166.1834 255° West  Level FlightAware Approximate
12:12PM 63.4999 165.8986 255° West  Level FlightAware Approximate
12:13PM 63.4648 165.6145 254° West  Level FlightAware Approximate
12:14PM 63.4291 165.3311 254° West  Level FlightAware Approximate
12:15PM 63.3929 165.0484 254° West  Level FlightAware Approximate
12:16PM 63.3562 164.7664 254° West  Level FlightAware Approximate
12:17PM 63.3188 164.4852 253° West  Level FlightAware Approximate
12:18PM 63.2810 164.2047 253° West  Level FlightAware Approximate
12:19PM 63.2425 163.9249 253° West  Level FlightAware Approximate
12:20PM 63.2036 163.6459 253° West  Level FlightAware Approximate
12:21PM 63.1641 163.3676 252° West  Level FlightAware Approximate
12:22PM 63.1240 163.0901 252° West  Level FlightAware Approximate
12:23PM 63.0834 162.8133 252° West  Level FlightAware Approximate
12:24PM 63.0423 162.5374 252° West  Level FlightAware Approximate
12:25PM 63.0006 162.2622 251° West  Level FlightAware Approximate
12:26PM 62.9584 161.9878 251° West  Level FlightAware Approximate
12:27PM 62.9156 161.7142 251° West  Level FlightAware Approximate
12:28PM 62.8724 161.4414 251° West  Level FlightAware Approximate
12:29PM 62.8286 161.1694 250° West  Level FlightAware Approximate
12:30PM 62.7843 160.8982 250° West  Level FlightAware Approximate
12:31PM 62.7395 160.6279 250° West  Level FlightAware Approximate
12:32PM 62.6941 160.3583 250° West  Level FlightAware Approximate
12:33PM 62.6483 160.0896 249° West  Level FlightAware Approximate
12:34PM 62.6019 159.8218 249° West  Level FlightAware Approximate
12:35PM 62.5550 159.5547 249° West  Level FlightAware Approximate
12:36PM 62.5076 159.2886 249° West  Level FlightAware Approximate
12:37PM 62.4597 159.0232 249° West  Level FlightAware Approximate
12:38PM 62.4113 158.7588 248° West  Level FlightAware Approximate
12:39PM 62.3624 158.4951 248° West  Level FlightAware Approximate
12:40PM 62.3130 158.2324 248° West  Level FlightAware Approximate
12:41PM 62.2631 157.9705 248° West  Level FlightAware Approximate
12:42PM 62.2127 157.7095 247° West  Level FlightAware Approximate
12:43PM 62.1618 157.4493 247° West  Level FlightAware Approximate
12:44PM 62.1105 157.1900 247° West  Level FlightAware Approximate
12:45PM 62.0587 156.9316 247° West  Level FlightAware Approximate
12:46PM 62.0063 156.6741 246° West  Level FlightAware Approximate
12:47PM 61.9535 156.4175 246° West  Level FlightAware Approximate
12:48PM 61.9002 156.1618 246° West  Level FlightAware Approximate
12:49PM 61.8465 155.9070 246° West  Level FlightAware Approximate
12:50PM 61.7923 155.6530 246° West  Level FlightAware Approximate
12:51PM 61.7376 155.4000 245° Southwest  Level FlightAware Approximate
12:52PM 61.6824 155.1478 245° Southwest  Level FlightAware Approximate
12:53PM 61.6268 154.8966 245° Southwest  Level FlightAware Approximate
12:54PM 61.5708 154.6463 245° Southwest  Level FlightAware Approximate
12:55PM 61.5142 154.3969 244° Southwest  Level FlightAware Approximate
12:56PM 61.4572 154.1483 244° Southwest  Level FlightAware Approximate
12:57PM 61.3998 153.9007 244° Southwest  Level FlightAware Approximate
12:58PM 61.3419 153.6541 244° Southwest  Level FlightAware Approximate
12:59PM 61.2836 153.4083 244° Southwest  Level FlightAware Approximate
01:00PM 61.2248 153.1634 243° Southwest  Level FlightAware Approximate
01:01PM 61.1656 152.9195 243° Southwest  Level FlightAware Approximate
01:02PM 61.1060 152.6764 243° Southwest  Level FlightAware Approximate
01:03PM 61.0459 152.4343 243° Southwest  Level FlightAware Approximate
01:04PM 60.9854 152.1931 243° Southwest  Level FlightAware Approximate
01:05PM 60.9245 151.9529 242° Southwest  Level FlightAware Approximate
01:06PM 60.8631 151.7135 242° Southwest  Level FlightAware Approximate
01:07PM 60.8013 151.4751 242° Southwest  Level FlightAware Approximate
01:08PM 60.7391 151.2376 242° Southwest  Level FlightAware Approximate
01:09PM 60.6765 151.0010 241° Southwest  Level FlightAware Approximate
01:10PM 60.6134 150.7653 241° Southwest  Level FlightAware Approximate
01:11PM 60.5500 150.5306 241° Southwest  Level FlightAware Approximate
01:12PM 60.4861 150.2967 241° Southwest  Level FlightAware Approximate
01:13PM 60.4218 150.0638 241° Southwest  Level FlightAware Approximate
01:14PM 60.3571 149.8319 240° Southwest  Level FlightAware Approximate
01:15PM 60.2921 149.6008 240° Southwest  Level FlightAware Approximate
01:16PM 60.2266 149.3707 240° Southwest  Level FlightAware Approximate
01:17PM 60.1607 149.1415 240° Southwest  Level FlightAware Approximate
01:18PM 60.0944 148.9132 240° Southwest  Level FlightAware Approximate
01:19PM 60.0278 148.6858 239° Southwest  Level FlightAware Approximate
01:20PM 59.9607 148.4594 239° Southwest  Level FlightAware Approximate
01:21PM 59.8933 148.2338 239° Southwest  Level FlightAware Approximate
01:22PM 59.8255 148.0092 239° Southwest  Level FlightAware Approximate
01:23PM 59.7573 147.7855 239° Southwest  Level FlightAware Approximate
01:24PM 59.6887 147.5627 238° Southwest  Level FlightAware Approximate
01:25PM 59.6197 147.3408 238° Southwest  Level FlightAware Approximate
01:26PM 59.5504 147.1198 238° Southwest  Level FlightAware Approximate
01:27PM 59.4807 146.8998 238° Southwest  Level FlightAware Approximate
01:28PM 59.4106 146.6806 238° Southwest  Level FlightAware Approximate
01:29PM 59.3402 146.4624 238° Southwest  Level FlightAware Approximate
01:30PM 59.2694 146.2451 237° Southwest  Level FlightAware Approximate
01:31PM 59.1982 146.0286 237° Southwest  Level FlightAware Approximate
01:32PM 59.1267 145.8131 237° Southwest  Level FlightAware Approximate
01:33PM 59.0548 145.5985 237° Southwest  Level FlightAware Approximate
01:34PM 58.9826 145.3847 237° Southwest  Level FlightAware Approximate
01:35PM 58.9100 145.1719 232° Southwest  Level FlightAware Approximate
01:36PM 58.8291 144.9711 236° Southwest  Level FlightAware Approximate
01:37PM 58.7560 144.7600 236° Southwest  Level FlightAware Approximate
01:38PM 58.6825 144.5497 236° Southwest  Level FlightAware Approximate
01:39PM 58.6086 144.3404 236° Southwest  Level FlightAware Approximate
01:40PM 58.5344 144.1319 236° Southwest  Level FlightAware Approximate
01:41PM 58.4599 143.9243 235° Southwest  Level FlightAware Approximate
01:42PM 58.3851 143.7176 235° Southwest  Level FlightAware Approximate
01:43PM 58.3099 143.5117 235° Southwest  Level FlightAware Approximate
01:44PM 58.2343 143.3068 235° Southwest  Level FlightAware Approximate
01:45PM 58.1585 143.1027 235° Southwest  Level FlightAware Approximate
01:46PM 58.0823 142.8994 235° Southwest  Level FlightAware Approximate
01:47PM 58.0058 142.6971 234° Southwest  Level FlightAware Approximate
01:48PM 57.9290 142.4956 234° Southwest  Level FlightAware Approximate
01:49PM 57.8519 142.2950 234° Southwest  Level FlightAware Approximate
01:50PM 57.7745 142.0952 234° Southwest  Level FlightAware Approximate
01:51PM 57.6967 141.8963 234° Southwest  Level FlightAware Approximate
01:52PM 57.6186 141.6982 234° Southwest  Level FlightAware Approximate
01:53PM 57.5402 141.5010 233° Southwest  Level FlightAware Approximate
01:54PM 57.4616 141.3047 233° Southwest  Level FlightAware Approximate
01:55PM 57.3826 141.1091 233° Southwest  Level FlightAware Approximate
01:56PM 57.3033 140.9145 233° Southwest  Level FlightAware Approximate
01:57PM 57.2237 140.7206 233° Southwest  Level FlightAware Approximate
01:58PM 57.1438 140.5276 233° Southwest  Level FlightAware Approximate
01:59PM 57.0636 140.3355 232° Southwest  Level FlightAware Approximate
02:00PM 56.9832 140.1441 232° Southwest  Level FlightAware Approximate
02:01PM 56.9024 139.9536 232° Southwest  Level FlightAware Approximate
02:02PM 56.8214 139.7639 232° Southwest  Level FlightAware Approximate
02:03PM 56.7400 139.5751 232° Southwest  Level FlightAware Approximate
02:04PM 56.6584 139.3870 232° Southwest  Level FlightAware Approximate
02:05PM 56.5765 139.1998 231° Southwest  Level FlightAware Approximate
02:06PM 56.4943 139.0134 231° Southwest  Level FlightAware Approximate
02:07PM 56.4119 138.8277 231° Southwest  Level FlightAware Approximate
02:08PM 56.3291 138.6429 231° Southwest  Level FlightAware Approximate
02:09PM 56.2461 138.4589 231° Southwest  Level FlightAware Approximate
02:10PM 56.1628 138.2757 231° Southwest  Level FlightAware Approximate
02:11PM 56.0793 138.0933 231° Southwest  Level FlightAware Approximate
02:12PM 55.9955 137.9117 233° Southwest  Level FlightAware Approximate
02:13PM 55.9160 137.7247 230° Southwest  Level FlightAware Approximate
02:14PM 55.8316 137.5448 230° Southwest  Level FlightAware Approximate
02:15PM 55.7469 137.3656 230° Southwest  Level FlightAware Approximate
02:16PM 55.6619 137.1872 230° Southwest  Level FlightAware Approximate
02:17PM 55.5767 137.0096 230° Southwest  Level FlightAware Approximate
02:18PM 55.4912 136.8328 229° Southwest  Level FlightAware Approximate
02:19PM 55.4055 136.6567 229° Southwest  Level FlightAware Approximate
02:20PM 55.3195 136.4814 229° Southwest  Level FlightAware Approximate
02:21PM 55.2333 136.3068 229° Southwest  Level FlightAware Approximate
02:22PM 55.1468 136.1330 229° Southwest  Level FlightAware Approximate
02:23PM 55.0601 135.9599 229° Southwest  Level FlightAware Approximate
02:24PM 54.9732 135.7876 229° Southwest  Level FlightAware Approximate
02:25PM 54.8859 135.6161 228° Southwest  Level FlightAware Approximate
02:26PM 54.7985 135.4453 228° Southwest  Level FlightAware Approximate
02:27PM 54.7108 135.2752 228° Southwest  Level FlightAware Approximate
02:28PM 54.6229 135.1059 228° Southwest  Level FlightAware Approximate
02:29PM 54.5347 134.9373 228° Southwest  Level FlightAware Approximate
02:30PM 54.4464 134.7694 228° Southwest  Level FlightAware Approximate
02:31PM 54.3577 134.6022 228° Southwest  Level FlightAware Approximate
02:32PM 54.2689 134.4358 227° Southwest  Level FlightAware Approximate
02:33PM 54.1798 134.2701 227° Southwest  Level FlightAware Approximate
02:34PM 54.0905 134.1051 227° Southwest  Level FlightAware Approximate
02:35PM 54.0010 133.9408 227° Southwest  Level FlightAware Approximate
02:36PM 53.9112 133.7772 227° Southwest  Level FlightAware Approximate
02:37PM 53.8212 133.6143 227° Southwest  Level FlightAware Approximate
02:38PM 53.7310 133.4521 227° Southwest  Level FlightAware Approximate
02:39PM 53.6406 133.2906 227° Southwest  Level FlightAware Approximate
02:40PM 53.5500 133.1298 226° Southwest  Level FlightAware Approximate
02:41PM 53.4591 132.9697 226° Southwest  Level FlightAware Approximate
02:42PM 53.3681 132.8103 226° Southwest  Level FlightAware Approximate
02:43PM 53.2768 132.6515 226° Southwest  Level FlightAware Approximate
02:44PM 53.1853 132.4935 226° Southwest  Level FlightAware Approximate
02:45PM 53.0937 132.3361 226° Southwest  Level FlightAware Approximate
02:46PM 53.0018 132.1793 226° Southwest  Level FlightAware Approximate
02:47PM 52.9097 132.0233 226° Southwest  Level FlightAware Approximate
02:48PM 52.8174 131.8679 225° Southwest  Level FlightAware Approximate
02:49PM 52.7249 131.7132 225° Southwest  Level FlightAware Approximate
02:50PM 52.6322 131.5591 225° Southwest  Level FlightAware Approximate
02:51PM 52.5393 131.4056 225° Southwest  Level FlightAware Approximate
02:52PM 52.4462 131.2529 225° Southwest  Level FlightAware Approximate
02:53PM 52.3529 131.1007 225° Southwest  Level FlightAware Approximate
02:54PM 52.2594 130.9492 225° Southwest  Level FlightAware Approximate
02:55PM 52.1657 130.7984 225° Southwest  Level FlightAware Approximate
02:56PM 52.0718 130.6482 224° Southwest  Level FlightAware Approximate
02:57PM 51.9768 130.5002 224° Southwest  Level FlightAware Approximate
02:58PM 51.8826 130.3512 224° Southwest  Level FlightAware Approximate
02:59PM 51.7882 130.2028 224° Southwest  Level FlightAware Approximate
03:00PM 51.6936 130.0550 224° Southwest  Level FlightAware Approximate
03:01PM 51.5988 129.9078 224° Southwest  Level FlightAware Approximate
03:02PM 51.5039 129.7613 224° Southwest  Level FlightAware Approximate
03:03PM 51.4087 129.6153 224° Southwest  Level FlightAware Approximate
03:04PM 51.3134 129.4700 224° Southwest  Level FlightAware Approximate
03:05PM 51.2179 129.3252 223° Southwest  Level FlightAware Approximate
03:06PM 51.1223 129.1811 223° Southwest  Level FlightAware Approximate
03:07PM 51.0264 129.0376 223° Southwest  Level FlightAware Approximate
03:08PM 50.9304 128.8946 223° Southwest  Level FlightAware Approximate
03:09PM 50.8342 128.7522 223° Southwest  Level FlightAware Approximate
03:10PM 50.7378 128.6105 223° Southwest  Level FlightAware Approximate
03:11PM 50.6413 128.4693 223° Southwest  Level FlightAware Approximate
03:12PM 50.5446 128.3287 223° Southwest  Level FlightAware Approximate
03:13PM 50.4477 128.1886 223° Southwest  Level FlightAware Approximate
03:14PM 50.3507 128.0492 222° Southwest  Level FlightAware Approximate
03:15PM 50.2534 127.9103 222° Southwest  Level FlightAware Approximate
03:16PM 50.1561 127.7719 222° Southwest  Level FlightAware Approximate
03:17PM 50.0585 127.6342 222° Southwest  Level FlightAware Approximate
03:18PM 49.9608 127.4970 222° Southwest  Level FlightAware Approximate
03:19PM 49.8629 127.3603 222° Southwest  Level FlightAware Approximate
03:20PM 49.7649 127.2242 222° Southwest  Level FlightAware Approximate
03:21PM 49.6667 127.0887 222° Southwest  Level FlightAware Approximate
03:22PM 49.5684 126.9537 222° Southwest  Level FlightAware Approximate
03:23PM 49.4699 126.8192 221° Southwest  Level FlightAware Approximate
03:24PM 49.3712 126.6853 221° Southwest  Level FlightAware Approximate
03:25PM 49.2724 126.5519 221° Southwest  Level FlightAware Approximate
03:26PM 49.1734 126.4191 221° Southwest  Level FlightAware Approximate
03:27PM 49.0743 126.2868 221° Southwest  Level FlightAware Approximate
03:28PM 48.9751 126.1550 221° Southwest  Level FlightAware Approximate
03:29PM 48.8756 126.0238 221° Southwest  Level FlightAware Approximate
03:30PM 48.7761 125.8930 221° Southwest  Level FlightAware Approximate
03:31PM 48.6764 125.7628 221° Southwest  Level FlightAware Approximate
03:32PM 48.5765 125.6331 222° Southwest  Level FlightAware Approximate
03:33PM 48.4784 125.5007 220° Southwest  Level FlightAware Approximate
03:34PM 48.3782 125.3721 220° Southwest  Level FlightAware Approximate
03:35PM 48.2778 125.2441 220° Southwest  Level FlightAware Approximate
03:36PM 48.1773 125.1165 220° Southwest  Level FlightAware Approximate
03:37PM 48.0767 124.9895 220° Southwest  Level FlightAware Approximate
03:38PM 47.9759 124.8629 220° Southwest  Level FlightAware Approximate
03:39PM 47.8750 124.7369 220° Southwest  Level FlightAware Approximate
03:40PM 47.7739 124.6113 220° Southwest  Level FlightAware Approximate
03:41PM 47.6727 124.4862 220° Southwest  Level FlightAware Approximate
03:42PM 47.5714 124.3616 220° Southwest  Level FlightAware Approximate
03:43PM 47.4699 124.2375 220° Southwest  Level FlightAware Approximate
03:44PM 47.3683 124.1139 219° Southwest  Level FlightAware Approximate
03:45PM 47.2666 123.9907 219° Southwest  Level FlightAware Approximate
03:46PM 47.1647 123.8680 219° Southwest  Level FlightAware Approximate
03:47PM 47.0627 123.7458 219° Southwest  Level FlightAware Approximate
03:48PM 46.9606 123.6240 219° Southwest  Level FlightAware Approximate
03:49PM 46.8583 123.5027 219° Southwest  Level FlightAware Approximate
03:50PM 46.7560 123.3819 219° Southwest  Level FlightAware Approximate
03:51PM 46.6535 123.2615 219° Southwest  Level FlightAware Approximate
03:52PM 46.5508 123.1416 219° Southwest  Level FlightAware Approximate
03:53PM 46.4481 123.0222 219° Southwest  Level FlightAware Approximate
03:54PM 46.3452 122.9032 219° Southwest  Level FlightAware Approximate
03:55PM 46.2422 122.7846 218° Southwest  Level FlightAware Approximate
03:56PM 46.1390 122.6665 218° Southwest  Level FlightAware Approximate
03:57PM 46.0358 122.5488 218° Southwest  Level FlightAware Approximate
03:58PM 45.9324 122.4316 218° Southwest  Level FlightAware Approximate
03:59PM 45.8289 122.3148 218° Southwest  Level FlightAware Approximate
04:00PM 45.7253 122.1984 218° Southwest  Level FlightAware Approximate
04:01PM 45.6216 122.0825 218° Southwest  Level FlightAware Approximate
04:02PM 45.5181 121.9664 218° Southwest  Level FlightAware Approximate
04:03PM 45.4141 121.8514 218° Southwest  Level FlightAware Approximate
04:04PM 45.3100 121.7368 218° Southwest  Level FlightAware Approximate
04:05PM 45.2057 121.6226 218° Southwest  Level FlightAware Approximate
04:06PM 45.1014 121.5089 218° Southwest  Level FlightAware Approximate
04:07PM 44.9970 121.3955 217° Southwest  Level FlightAware Approximate
04:08PM 44.8924 121.2826 217° Southwest  Level FlightAware Approximate
04:09PM 44.7878 121.1701 217° Southwest  Level FlightAware Approximate
04:10PM 44.6830 121.0579 217° Southwest  Level FlightAware Approximate
04:11PM 44.5781 120.9462 217° Southwest  Level FlightAware Approximate
04:12PM 44.4731 120.8349 217° Southwest  Level FlightAware Approximate
04:13PM 44.3680 120.7240 217° Southwest  Level FlightAware Approximate
04:14PM 44.2628 120.6135 217° Southwest  Level FlightAware Approximate
04:15PM 44.1575 120.5034 217° Southwest  Level FlightAware Approximate
04:16PM 44.0521 120.3936 217° Southwest  Level FlightAware Approximate
04:17PM 43.9465 120.2843 217° Southwest  Level FlightAware Approximate
04:18PM 43.8409 120.1754 217° Southwest  Level FlightAware Approximate
04:19PM 43.7352 120.0668 217° Southwest  Level FlightAware Approximate
04:20PM 43.6294 119.9586 215° Southwest  Level FlightAware Approximate
04:21PM 43.5222 119.8536 216° Southwest  Level FlightAware Approximate
04:22PM 43.4162 119.7461 216° Southwest  Level FlightAware Approximate
04:23PM 43.3101 119.6390 216° Southwest  Level FlightAware Approximate
04:24PM 43.2039 119.5323 216° Southwest  Level FlightAware Approximate
04:25PM 43.0976 119.4259 216° Southwest  Level FlightAware Approximate
04:26PM 42.9912 119.3199 216° Southwest  Level FlightAware Approximate
04:27PM 42.8847 119.2143 216° Southwest  Level FlightAware Approximate
04:28PM 42.7781 119.1090 216° Southwest  Level FlightAware Approximate
04:29PM 42.6715 119.0041 216° Southwest  Level FlightAware Approximate
04:30PM 42.5647 118.8996 216° Southwest  Level FlightAware Approximate
04:31PM 42.4578 118.7954 216° Southwest  Level FlightAware Approximate
04:32PM 42.3508 118.6915 216° Southwest  Level FlightAware Approximate
04:33PM 42.2438 118.5881 216° Southwest  Level FlightAware Approximate
04:34PM 42.1366 118.4849 215° Southwest  Level FlightAware Approximate
04:35PM 42.0293 118.3821 215° Southwest  Level FlightAware Approximate
04:36PM 41.9220 118.2797 215° Southwest  Level FlightAware Approximate
04:37PM 41.8146 118.1776 215° Southwest  Level FlightAware Approximate
04:38PM 41.7071 118.0759 217° Southwest  Level FlightAware Approximate
04:39PM 41.6014 117.9709 215° Southwest  Level FlightAware Approximate
04:40PM 41.4936 117.8701 214° Southwest  Level FlightAware Approximate
04:41PM 41.3845 117.7720 215° Southwest  Level FlightAware Approximate
04:42PM 41.2766 117.6717 215° Southwest  Level FlightAware Approximate
04:43PM 41.1688 117.5711 215° Southwest  Level FlightAware Approximate
04:44PM 41.0607 117.4715 215° Southwest  Level FlightAware Approximate
04:45PM 40.9529 117.3715 215° Southwest  Level FlightAware Approximate
04:46PM 40.8446 117.2726 215° Southwest  Level FlightAware Approximate
04:47PM 40.7362 117.1741 215° Southwest  Level FlightAware Approximate
04:48PM 40.6289 117.0753 214° Southwest  Level FlightAware Approximate
04:49PM 40.5203 116.9774 215° Southwest  Level FlightAware Approximate
04:50PM 40.4122 116.8788 214° Southwest  Level FlightAware Approximate
04:51PM 40.3028 116.7829 215° Southwest  Level FlightAware Approximate
04:52PM 40.1957 116.6832 211° Southwest  Level FlightAware Approximate
04:53PM 40.0825 116.5952 253° West  Level FlightAware Approximate
04:54PM 40.0450 116.4304 79° East  Level Estimated
04:55PM 40.0667 116.5833 North  Level FlightAware Approximate
04:56PM 40.1980 116.5953 184° South  Level Estimated
04:57PM 40.0667 116.5833 North  Level FlightAware Approximate
04:58PM 40.1980 116.5953 184° South  Level Estimated
04:59PM 40.0667 116.5833 North  Level FlightAware Approximate
05:00PM 40.1980 116.5953 184° South  Level Estimated
05:01PM 40.0667 116.5833 North  Level FlightAware Approximate
05:02PM 40.1980 116.5953 North  Level Estimated